Time,TemperatureF,DewpointF,PressureIn,WindDirection,WindDirectionDegrees,WindSpeedMPH,WindSpeedGustMPH,Humidity,HourlyPrecipIn,Conditions,Clouds,dailyrainin,SoftwareType,DateUTC
2013-11-27 00:01:00,33.7,17.0,30.33,SSW,205,1.2,1.2,50,0.00,BKN,OVC,0.00,WeatherDisplay:10.37,2013-11-27 05:01:00,
2013-11-27 00:06:00,33.4,16.7,30.33,SSW,205,1.2,1.2,50,0.00,BKN,OVC,0.00,WeatherDisplay:10.37,2013-11-27 05:06:00,
2013-11-27 00:11:00,33.3,16.6,30.33,SSW,205,2.0,2.0,50,0.00,BKN,OVC,0.00,WeatherDisplay:10.37,2013-11-27 05:11:00,
2013-11-27 00:16:00,33.3,16.6,30.33,SSW,205,1.2,1.2,50,0.00,BKN,OVC,0.00,WeatherDisplay:10.37,2013-11-27 05:16:00,
2013-11-27 00:21:00,33.5,16.8,30.33,SSW,205,3.5,3.5,50,0.00,BKN,OVC,0.00,WeatherDisplay:10.37,2013-11-27 05:21:00,
2013-11-27 00:26:00,33.5,16.8,30.33,SSW,205,2.0,2.0,50,0.00,BKN,OVC,0.00,WeatherDisplay:10.37,2013-11-27 05:26:00,
2013-11-27 00:31:00,33.4,16.7,30.33,SSW,205,2.3,2.3,50,0.00,BKN,OVC,0.00,WeatherDisplay:10.37,2013-11-27 05:31:00,
2013-11-27 00:36:00,33.3,16.6,30.33,SSW,205,2.3,2.3,50,0.00,BKN,OVC,0.00,WeatherDisplay:10.37,2013-11-27 05:36:00,
2013-11-27 00:41:00,33.4,16.7,30.33,SSW,205,2.3,2.3,50,0.00,BKN,OVC,0.00,WeatherDisplay:10.37,2013-11-27 05:41:00,
2013-11-27 00:46:00,33.4,16.7,30.33,SSW,205,2.3,2.3,50,0.00,BKN,OVC,0.00,WeatherDisplay:10.37,2013-11-27 05:46:00,
2013-11-27 00:51:00,33.3,16.6,30.33,SSW,205,1.2,1.2,50,0.00,BKN,OVC,0.00,WeatherDisplay:10.37,2013-11-27 05:51:00,
2013-11-27 00:56:00,33.4,16.7,30.33,SSW,205,2.3,2.3,50,0.00,BKN,OVC,0.00,WeatherDisplay:10.37,2013-11-27 05:56:00,
2013-11-27 01:01:00,33.3,16.6,30.33,SSW,205,2.3,2.3,50,0.00,BKN,OVC,0.00,WeatherDisplay:10.37,2013-11-27 06:01:00,
2013-11-27 01:06:00,33.2,16.5,30.33,SSW,205,2.3,2.3,50,0.00,BKN,OVC,0.00,WeatherDisplay:10.37,2013-11-27 06:06:00,
2013-11-27 01:11:00,33.2,16.5,30.33,SSW,205,1.2,1.2,50,0.00,BKN,OVC,0.00,WeatherDisplay:10.37,2013-11-27 06:11:00,
2013-11-27 01:16:00,33.3,16.6,30.33,SSW,205,1.2,1.2,50,0.00,BKN,OVC,0.00,WeatherDisplay:10.37,2013-11-27 06:16:00,
2013-11-27 01:21:00,33.2,16.5,30.33,SSW,205,3.5,3.5,50,0.00,BKN,OVC,0.00,WeatherDisplay:10.37,2013-11-27 06:21:00,
2013-11-27 01:26:00,33.2,16.5,30.33,SSW,205,3.5,3.5,50,0.00,BKN,OVC,0.00,WeatherDisplay:10.37,2013-11-27 06:26:00,
2013-11-27 01:31:00,33.2,16.5,30.33,SSW,205,2.3,2.3,50,0.00,BKN,OVC,0.00,WeatherDisplay:10.37,2013-11-27 06:31:00,
2013-11-27 01:36:00,33.3,16.6,30.33,SSW,205,3.5,3.5,50,0.00,BKN,OVC,0.00,WeatherDisplay:10.37,2013-11-27 06:36:00,
2013-11-27 01:41:00,33.2,16.5,30.33,SSW,205,3.5,3.5,50,0.00,BKN,OVC,0.00,WeatherDisplay:10.37,2013-11-27 06:41:00,
2013-11-27 01:46:00,33.1,16.5,30.33,SSW,205,2.3,2.3,50,0.00,BKN,OVC,0.00,WeatherDisplay:10.37,2013-11-27 06:46:00,
2013-11-27 01:51:00,33.3,16.6,30.33,SSW,205,2.3,2.3,50,0.00,BKN,OVC,0.00,WeatherDisplay:10.37,2013-11-27 06:51:00,
2013-11-27 01:56:00,33.4,16.7,30.33,SSW,205,2.0,2.0,50,0.00,BKN,OVC,0.00,WeatherDisplay:10.37,2013-11-27 06:56:00,
2013-11-27 02:01:00,33.4,16.7,30.33,SSW,205,3.5,3.5,50,0.00,BKN,OVC,0.00,WeatherDisplay:10.37,2013-11-27 07:01:00,
2013-11-27 02:06:00,33.3,16.6,30.33,SSW,205,2.3,2.3,50,0.00,BKN,OVC,0.00,WeatherDisplay:10.37,2013-11-27 07:06:00,
2013-11-27 02:11:00,33.2,16.5,30.33,SSW,205,1.2,1.2,50,0.00,BKN,OVC,0.00,WeatherDisplay:10.37,2013-11-27 07:11:00,
2013-11-27 02:16:00,33.4,16.7,30.33,SSW,205,2.3,2.3,50,0.00,BKN,OVC,0.00,WeatherDisplay:10.37,2013-11-27 07:16:00,
2013-11-27 02:21:00,33.6,16.9,30.33,SSW,205,2.3,2.3,50,0.00,BKN,OVC,0.00,WeatherDisplay:10.37,2013-11-27 07:21:00,
2013-11-27 02:26:00,33.5,16.8,30.33,SSW,205,2.3,2.3,50,0.00,BKN,OVC,0.00,WeatherDisplay:10.37,2013-11-27 07:26:00,
2013-11-27 02:31:00,33.3,16.6,30.33,SSW,205,2.3,2.3,50,0.00,BKN,OVC,0.00,WeatherDisplay:10.37,2013-11-27 07:31:00,
2013-11-27 02:36:00,33.5,16.8,30.33,SSW,205,2.3,2.3,50,0.00,BKN,OVC,0.00,WeatherDisplay:10.37,2013-11-27 07:36:00,
2013-11-27 02:41:00,33.7,17.0,30.33,SSW,205,3.5,3.5,50,0.00,BKN,OVC,0.00,WeatherDisplay:10.37,2013-11-27 07:41:00,
2013-11-27 02:46:00,33.6,16.9,30.33,SSW,205,3.5,3.5,50,0.00,BKN,OVC,0.00,WeatherDisplay:10.37,2013-11-27 07:46:00,
2013-11-27 02:51:00,34.1,17.4,30.33,SSW,207,3.5,3.5,50,0.00,BKN,OVC,0.00,WeatherDisplay:10.37,2013-11-27 07:51:00,
2013-11-27 02:56:00,34.3,17.6,30.33,West,261,5.8,5.8,50,0.00,BKN,OVC,0.00,WeatherDisplay:10.37,2013-11-27 07:56:00,
2013-11-27 03:01:00,34.1,17.4,30.33,West,278,5.8,5.8,50,0.00,BKN,OVC,0.00,WeatherDisplay:10.37,2013-11-27 08:01:00,
2013-11-27 03:06:00,34.1,17.4,30.33,WNW,287,6.9,6.9,50,0.00,BKN,OVC,0.00,WeatherDisplay:10.37,2013-11-27 08:06:00,
2013-11-27 03:11:00,33.8,17.1,30.33,WNW,297,5.8,5.8,50,0.00,BKN,OVC,0.00,WeatherDisplay:10.37,2013-11-27 08:11:00,
2013-11-27 03:16:00,33.8,17.1,30.33,WNW,297,4.6,4.6,50,0.00,BKN,OVC,0.00,WeatherDisplay:10.37,2013-11-27 08:16:00,
2013-11-27 03:22:00,34.3,17.6,30.33,WNW,298,5.0,5.0,50,0.00,BKN,OVC,0.00,WeatherDisplay:10.37,2013-11-27 08:22:00,
2013-11-27 03:26:00,34.0,17.3,30.33,WNW,298,3.5,3.5,50,0.00,BKN,OVC,0.00,WeatherDisplay:10.37,2013-11-27 08:26:00,
2013-11-27 03:31:00,34.5,17.8,30.33,WNW,298,5.0,5.0,50,0.00,BKN,OVC,0.00,WeatherDisplay:10.37,2013-11-27 08:31:00,
2013-11-27 03:36:00,34.0,17.3,30.33,WNW,298,4.6,4.6,50,0.00,BKN,OVC,0.00,WeatherDisplay:10.37,2013-11-27 08:36:00,
2013-11-27 03:41:00,33.5,16.8,30.33,WNW,298,2.3,2.3,50,0.00,BKN,OVC,0.00,WeatherDisplay:10.37,2013-11-27 08:41:00,
2013-11-27 03:46:00,33.1,16.5,30.33,WNW,298,3.5,3.5,50,0.00,BKN,OVC,0.00,WeatherDisplay:10.37,2013-11-27 08:46:00,
2013-11-27 03:51:00,33.7,17.0,30.33,WNW,298,3.5,3.5,50,0.00,BKN,OVC,0.00,WeatherDisplay:10.37,2013-11-27 08:51:00,
2013-11-27 03:56:00,34.0,17.3,30.33,WNW,298,4.6,4.6,50,0.00,BKN,OVC,0.00,WeatherDisplay:10.37,2013-11-27 08:56:00,
2013-11-27 04:01:00,33.9,17.2,30.33,WNW,298,3.5,3.5,50,0.00,BKN,OVC,0.00,WeatherDisplay:10.37,2013-11-27 09:01:00,
2013-11-27 04:06:00,34.0,17.3,30.33,WNW,298,3.5,3.5,50,0.00,BKN,OVC,0.00,WeatherDisplay:10.37,2013-11-27 09:06:00,
2013-11-27 04:11:00,33.7,17.0,30.33,WNW,298,3.5,3.5,50,0.00,BKN,OVC,0.00,WeatherDisplay:10.37,2013-11-27 09:11:00,
2013-11-27 04:16:00,33.8,17.1,30.33,WNW,298,5.0,5.0,50,0.00,BKN,OVC,0.00,WeatherDisplay:10.37,2013-11-27 09:16:00,
2013-11-27 04:22:00,34.2,17.5,30.33,WNW,298,5.8,5.8,50,0.00,BKN,OVC,0.00,WeatherDisplay:10.37,2013-11-27 09:22:00,
2013-11-27 04:26:00,34.1,17.4,30.33,WNW,298,6.9,6.9,50,0.00,BKN,OVC,0.00,WeatherDisplay:10.37,2013-11-27 09:26:00,
2013-11-27 04:32:00,34.0,17.3,30.33,WNW,298,5.8,5.8,50,0.00,BKN,OVC,0.00,WeatherDisplay:10.37,2013-11-27 09:32:00,
2013-11-27 04:37:00,34.2,17.5,30.33,WNW,298,6.9,6.9,50,0.00,BKN,OVC,0.00,WeatherDisplay:10.37,2013-11-27 09:37:00,
2013-11-27 04:42:00,34.3,17.6,30.33,WNW,298,5.8,5.8,50,0.00,BKN,OVC,0.00,WeatherDisplay:10.37,2013-11-27 09:42:00,
2013-11-27 04:47:00,34.4,17.7,30.33,WNW,298,4.6,4.6,50,0.00,BKN,OVC,0.00,WeatherDisplay:10.37,2013-11-27 09:47:00,
2013-11-27 04:52:00,34.3,17.6,30.33,WNW,298,5.8,5.8,50,0.00,BKN,OVC,0.00,WeatherDisplay:10.37,2013-11-27 09:52:00,
2013-11-27 04:57:00,33.5,16.8,30.33,WNW,298,4.6,4.6,50,0.00,BKN,OVC,0.00,WeatherDisplay:10.37,2013-11-27 09:57:00,
2013-11-27 05:02:00,34.5,17.8,30.33,WNW,298,4.6,4.6,50,0.00,BKN,OVC,0.00,WeatherDisplay:10.37,2013-11-27 10:02:00,
2013-11-27 05:07:00,34.2,17.5,30.33,WNW,298,4.0,4.0,50,0.00,BKN,OVC,0.00,WeatherDisplay:10.37,2013-11-27 10:07:00,
2013-11-27 05:12:00,34.2,17.5,30.33,WNW,298,6.9,6.9,50,0.00,BKN,OVC,0.00,WeatherDisplay:10.37,2013-11-27 10:12:00,
2013-11-27 05:17:00,34.1,17.4,30.33,WNW,298,5.0,5.0,50,0.00,BKN,OVC,0.00,WeatherDisplay:10.37,2013-11-27 10:17:00,
2013-11-27 05:22:00,33.7,17.0,30.33,WNW,298,3.5,3.5,50,0.00,BKN,OVC,0.00,WeatherDisplay:10.37,2013-11-27 10:22:00,
2013-11-27 05:27:00,33.8,17.1,30.33,WNW,298,4.0,4.0,50,0.00,BKN,OVC,0.00,WeatherDisplay:10.37,2013-11-27 10:27:00,
2013-11-27 05:32:00,33.9,17.2,30.33,WNW,298,3.5,3.5,50,0.00,BKN,OVC,0.00,WeatherDisplay:10.37,2013-11-27 10:32:00,
2013-11-27 05:37:00,33.9,17.2,30.33,WNW,298,3.5,3.5,50,0.00,BKN,OVC,0.00,WeatherDisplay:10.37,2013-11-27 10:37:00,
2013-11-27 05:42:00,34.1,17.4,30.33,WNW,298,3.5,3.5,50,0.00,BKN,OVC,0.00,WeatherDisplay:10.37,2013-11-27 10:42:00,
2013-11-27 05:47:00,33.8,17.1,30.33,WNW,298,5.0,5.0,50,0.00,BKN,OVC,0.00,WeatherDisplay:10.37,2013-11-27 10:47:00,
2013-11-27 05:52:00,33.8,17.1,30.33,WNW,298,5.8,5.8,50,0.00,BKN,OVC,0.00,WeatherDisplay:10.37,2013-11-27 10:52:00,
2013-11-27 05:57:00,33.9,17.2,30.33,WNW,298,4.6,4.6,50,0.00,BKN,OVC,0.00,WeatherDisplay:10.37,2013-11-27 10:57:00,
2013-11-27 06:02:00,34.4,17.7,30.33,WNW,298,5.8,5.8,50,0.00,BKN,OVC,0.00,WeatherDisplay:10.37,2013-11-27 11:02:00,
2013-11-27 06:07:00,34.0,17.3,30.33,WNW,299,6.9,6.9,50,0.00,BKN,OVC,0.00,WeatherDisplay:10.37,2013-11-27 11:07:00,
2013-11-27 06:12:00,34.3,17.6,30.33,WNW,301,7.0,7.0,50,0.00,BKN,OVC,0.00,WeatherDisplay:10.37,2013-11-27 11:12:00,
2013-11-27 06:17:00,34.1,17.4,30.33,NW,309,6.9,6.9,50,0.00,BKN,OVC,0.00,WeatherDisplay:10.37,2013-11-27 11:17:00,
2013-11-27 06:22:00,33.7,17.0,30.33,NW,310,8.1,8.1,50,0.00,BKN,OVC,0.00,WeatherDisplay:10.37,2013-11-27 11:22:00,
2013-11-27 06:27:00,34.0,17.3,30.33,NW,312,8.0,8.0,50,0.00,BKN,OVC,0.00,WeatherDisplay:10.37,2013-11-27 11:27:00,
2013-11-27 06:32:00,34.1,17.4,30.33,NW,309,8.1,8.1,50,0.00,BKN,OVC,0.00,WeatherDisplay:10.37,2013-11-27 11:32:00,
2013-11-27 06:37:00,34.3,17.6,30.33,NW,313,8.1,8.1,50,0.00,BKN,OVC,0.00,WeatherDisplay:10.37,2013-11-27 11:37:00,
2013-11-27 06:42:00,34.1,17.4,30.33,NW,318,9.2,9.2,50,0.00,BKN,OVC,0.00,WeatherDisplay:10.37,2013-11-27 11:42:00,
2013-11-27 06:47:00,34.2,17.5,30.33,NW,316,8.1,8.1,50,0.00,BKN,OVC,0.00,WeatherDisplay:10.37,2013-11-27 11:47:00,
2013-11-27 06:52:00,34.0,17.3,30.33,NW,318,11.5,11.5,50,0.00,BKN,OVC,0.00,WeatherDisplay:10.37,2013-11-27 11:52:00,
2013-11-27 06:57:00,33.9,17.2,30.33,NW,309,8.1,8.1,50,0.00,BKN,OVC,0.00,WeatherDisplay:10.37,2013-11-27 11:57:00,
2013-11-27 07:02:00,34.1,17.4,30.33,NW,309,10.4,10.4,50,0.00,BKN,OVC,0.00,WeatherDisplay:10.37,2013-11-27 12:02:00,
2013-11-27 07:07:00,33.7,17.0,30.33,NW,315,8.1,8.1,50,0.00,BKN,OVC,0.00,WeatherDisplay:10.37,2013-11-27 12:07:00,
2013-11-27 07:12:00,34.1,17.4,30.33,NW,312,9.2,9.2,50,0.00,BKN,OVC,0.00,WeatherDisplay:10.37,2013-11-27 12:12:00,
2013-11-27 07:17:00,33.6,16.9,30.33,NW,324,9.2,9.2,50,0.00,BKN,OVC,0.00,WeatherDisplay:10.37,2013-11-27 12:17:00,
2013-11-27 07:22:00,34.2,17.5,30.33,NW,316,9.2,9.2,50,0.00,BKN,OVC,0.00,WeatherDisplay:10.37,2013-11-27 12:22:00,
2013-11-27 07:27:00,34.2,17.5,30.33,NW,321,12.7,12.7,50,0.00,BKN,OVC,0.00,WeatherDisplay:10.37,2013-11-27 12:27:00,
2013-11-27 07:32:00,34.1,17.4,30.33,WNW,300,11.5,11.5,50,0.00,BKN,OVC,0.00,WeatherDisplay:10.37,2013-11-27 12:32:00,
2013-11-27 07:37:00,34.1,17.4,30.33,NW,308,12.7,12.7,50,0.00,BKN,OVC,0.00,WeatherDisplay:10.37,2013-11-27 12:37:00,
2013-11-27 07:42:00,34.1,17.4,30.33,NW,310,15.0,15.0,50,0.00,BKN,OVC,0.00,WeatherDisplay:10.37,2013-11-27 12:42:00,
2013-11-27 07:47:00,33.9,17.2,30.33,NW,304,11.0,11.0,50,0.00,BKN,OVC,0.00,WeatherDisplay:10.37,2013-11-27 12:47:00,
2013-11-27 07:52:00,34.0,17.3,30.33,NW,320,12.0,12.0,50,0.00,BKN,OVC,0.00,WeatherDisplay:10.37,2013-11-27 12:52:00,
2013-11-27 07:57:00,33.9,17.2,30.33,NNW,329,15.0,15.0,50,0.00,BKN,OVC,0.00,WeatherDisplay:10.37,2013-11-27 12:57:00,
2013-11-27 08:02:00,34.1,17.4,30.33,NW,319,14.0,14.0,50,0.00,BKN,OVC,0.00,WeatherDisplay:10.37,2013-11-27 13:02:00,
2013-11-27 08:07:00,33.9,17.2,30.33,NW,307,17.0,17.0,50,0.00,BKN,OVC,0.00,WeatherDisplay:10.37,2013-11-27 13:07:00,
2013-11-27 08:12:00,34.0,17.3,30.33,NW,318,15.0,15.0,50,0.00,BKN,OVC,0.00,WeatherDisplay:10.37,2013-11-27 13:12:00,
2013-11-27 08:17:00,33.8,17.1,30.33,NW,317,12.7,12.7,50,0.00,BKN,OVC,0.00,WeatherDisplay:10.37,2013-11-27 13:17:00,
2013-11-27 08:22:00,34.0,17.3,30.33,NW,325,17.3,17.3,50,0.00,BKN,OVC,0.00,WeatherDisplay:10.37,2013-11-27 13:22:00,
2013-11-27 08:27:00,33.7,17.0,30.33,WNW,286,12.7,12.7,50,0.00,BKN,OVC,0.00,WeatherDisplay:10.37,2013-11-27 13:27:00,
2013-11-27 08:32:00,33.9,17.2,30.33,NW,323,18.4,18.4,50,0.00,BKN,OVC,0.00,WeatherDisplay:10.37,2013-11-27 13:32:00,
2013-11-27 08:37:00,33.6,16.9,30.33,NW,322,21.0,21.0,50,0.00,BKN,OVC,0.00,WeatherDisplay:10.37,2013-11-27 13:37:00,
2013-11-27 08:42:00,33.6,16.9,30.33,NNW,329,17.3,17.3,50,0.00,BKN,OVC,0.00,WeatherDisplay:10.37,2013-11-27 13:42:00,
2013-11-27 08:47:00,33.7,17.0,30.33,NNW,330,19.6,19.6,50,0.00,BKN,OVC,0.00,WeatherDisplay:10.37,2013-11-27 13:47:00,
2013-11-27 08:52:00,33.8,17.1,30.33,NNW,327,23.0,23.0,50,0.00,BKN,OVC,0.00,WeatherDisplay:10.37,2013-11-27 13:52:00,
2013-11-27 08:57:00,33.5,16.8,30.33,WNW,303,23.0,23.0,50,0.00,BKN,OVC,0.00,WeatherDisplay:10.37,2013-11-27 13:57:00,
2013-11-27 09:02:00,33.7,17.0,30.33,WNW,302,12.7,12.7,50,0.00,BKN,OVC,0.00,WeatherDisplay:10.37,2013-11-27 14:02:00,
2013-11-27 09:07:00,33.6,16.9,30.33,NW,317,19.6,19.6,50,0.00,BKN,OVC,0.00,WeatherDisplay:10.37,2013-11-27 14:07:00,
2013-11-27 09:12:00,33.6,16.9,30.33,NNW,335,20.7,20.7,50,0.00,BKN,OVC,0.00,WeatherDisplay:10.37,2013-11-27 14:12:00,
2013-11-27 09:17:00,33.5,16.8,30.33,NNW,334,20.7,20.7,50,0.00,BKN,OVC,0.00,WeatherDisplay:10.37,2013-11-27 14:17:00,
2013-11-27 09:22:00,33.4,16.7,30.33,NW,319,19.6,19.6,50,0.00,BKN,OVC,0.00,WeatherDisplay:10.37,2013-11-27 14:22:00,
2013-11-27 09:27:00,33.7,17.0,30.33,NW,325,20.7,20.7,50,0.00,BKN,OVC,0.00,WeatherDisplay:10.37,2013-11-27 14:27:00,
2013-11-27 09:32:00,33.3,16.6,30.33,NW,316,21.9,21.9,50,0.00,BKN,OVC,0.00,WeatherDisplay:10.37,2013-11-27 14:32:00,
2013-11-27 09:37:00,33.6,16.9,30.33,NW,320,19.6,19.6,50,0.00,BKN,OVC,0.00,WeatherDisplay:10.37,2013-11-27 14:37:00,
2013-11-27 09:42:00,33.1,16.5,30.33,NW,324,19.6,19.6,50,0.00,BKN,OVC,0.00,WeatherDisplay:10.37,2013-11-27 14:42:00,
2013-11-27 09:47:00,33.0,16.4,30.33,NNW,333,18.4,18.4,50,0.00,BKN,OVC,0.00,WeatherDisplay:10.37,2013-11-27 14:47:00,
2013-11-27 09:52:00,33.2,16.5,30.33,NNW,330,24.2,24.2,50,0.00,BKN,OVC,0.00,WeatherDisplay:10.37,2013-11-27 14:52:00,
2013-11-27 09:57:00,33.2,16.5,30.33,NNW,330,19.6,19.6,50,0.00,BKN,OVC,0.00,WeatherDisplay:10.37,2013-11-27 14:57:00,
2013-11-27 10:02:00,33.4,16.7,30.33,NNW,337,12.7,13.4,50,0.00,BKN,OVC,0.00,WeatherDisplay:10.37,2013-11-27 15:02:00,
2013-11-27 10:07:00,33.1,16.5,30.33,NNW,335,19.0,19.0,50,0.00,BKN,OVC,0.00,WeatherDisplay:10.37,2013-11-27 15:07:00,
2013-11-27 10:12:00,32.5,15.9,30.33,WNW,298,16.1,16.1,50,0.00,BKN,OVC,0.00,WeatherDisplay:10.37,2013-11-27 15:12:00,
2013-11-27 10:17:00,32.9,16.3,30.33,NNW,337,18.4,18.4,50,0.00,BKN,OVC,0.00,WeatherDisplay:10.37,2013-11-27 15:17:00,
2013-11-27 10:22:00,33.4,16.7,30.33,NNW,327,19.6,19.6,50,0.00,BKN,OVC,0.00,WeatherDisplay:10.37,2013-11-27 15:22:00,
2013-11-27 10:27:00,33.2,16.5,30.33,NW,326,19.6,19.6,50,0.00,BKN,OVC,0.00,WeatherDisplay:10.37,2013-11-27 15:27:00,
2013-11-27 10:32:00,33.5,16.8,30.33,NW,324,15.0,15.0,50,0.00,BKN,OVC,0.00,WeatherDisplay:10.37,2013-11-27 15:32:00,
2013-11-27 10:37:00,33.2,16.5,30.33,NW,316,16.0,16.0,50,0.00,BKN,OVC,0.00,WeatherDisplay:10.37,2013-11-27 15:37:00,
2013-11-27 10:42:00,33.6,16.9,30.33,NNW,329,23.0,23.0,50,0.00,BKN,OVC,0.00,WeatherDisplay:10.37,2013-11-27 15:42:00,
2013-11-27 10:47:00,33.5,16.8,30.33,NW,326,17.3,17.3,50,0.00,BKN,OVC,0.00,WeatherDisplay:10.37,2013-11-27 15:47:00,
2013-11-27 10:52:00,33.8,17.1,30.33,NNW,329,23.0,23.0,50,0.00,BKN,OVC,0.00,WeatherDisplay:10.37,2013-11-27 15:52:00,
2013-11-27 10:57:00,33.8,17.1,30.33,NNW,334,20.7,20.7,50,0.00,BKN,OVC,0.00,WeatherDisplay:10.37,2013-11-27 15:57:00,
2013-11-27 11:02:00,33.9,17.2,30.33,NW,320,20.7,20.7,50,0.00,BKN,OVC,0.00,WeatherDisplay:10.37,2013-11-27 16:02:00,
2013-11-27 11:07:00,33.6,16.9,30.33,NNW,335,16.1,16.1,50,0.00,BKN,OVC,0.00,WeatherDisplay:10.37,2013-11-27 16:07:00,
2013-11-27 11:12:00,34.2,17.5,30.33,NW,308,15.0,15.0,50,0.00,BKN,OVC,0.00,WeatherDisplay:10.37,2013-11-27 16:12:00,
2013-11-27 11:17:00,33.9,17.2,30.33,NW,315,15.0,15.0,50,0.00,BKN,OVC,0.00,WeatherDisplay:10.37,2013-11-27 16:17:00,
2013-11-27 11:22:00,34.1,17.4,30.33,NNW,338,16.1,16.1,50,0.00,BKN,OVC,0.00,WeatherDisplay:10.37,2013-11-27 16:22:00,
2013-11-27 11:27:00,33.5,16.8,30.33,WNW,293,17.3,17.3,50,0.00,BKN,OVC,0.00,WeatherDisplay:10.37,2013-11-27 16:27:00,
2013-11-27 11:32:00,33.8,17.1,30.33,NW,316,19.6,19.6,50,0.00,BKN,OVC,0.00,WeatherDisplay:10.37,2013-11-27 16:32:00,
2013-11-27 11:37:00,34.0,17.3,30.33,NW,324,18.4,18.4,50,0.00,BKN,OVC,0.00,WeatherDisplay:10.37,2013-11-27 16:37:00,
2013-11-27 11:42:00,34.2,17.5,30.33,WNW,300,16.1,16.1,50,0.00,BKN,OVC,0.00,WeatherDisplay:10.37,2013-11-27 16:42:00,
2013-11-27 11:47:00,34.5,17.8,30.33,NW,319,17.3,17.3,50,0.00,BKN,OVC,0.00,WeatherDisplay:10.37,2013-11-27 16:47:00,
2013-11-27 11:52:00,34.3,17.6,30.33,NW,317,20.7,20.7,50,0.00,BKN,OVC,0.00,WeatherDisplay:10.37,2013-11-27 16:52:00,
2013-11-27 11:57:00,34.4,17.7,30.33,NW,312,19.6,19.6,50,0.00,BKN,OVC,0.00,WeatherDisplay:10.37,2013-11-27 16:57:00,
2013-11-27 12:02:00,34.2,17.5,30.33,NW,315,19.6,19.6,50,0.00,BKN,OVC,0.00,WeatherDisplay:10.37,2013-11-27 17:02:00,
2013-11-27 12:07:00,34.4,17.7,30.33,NW,314,17.3,17.3,50,0.00,BKN,OVC,0.00,WeatherDisplay:10.37,2013-11-27 17:07:00,
2013-11-27 12:12:00,34.5,17.8,30.33,NNW,333,20.7,20.7,50,0.00,BKN,OVC,0.00,WeatherDisplay:10.37,2013-11-27 17:12:00,
2013-11-27 12:17:00,34.4,17.7,30.33,NW,312,16.1,16.1,50,0.00,BKN,OVC,0.00,WeatherDisplay:10.37,2013-11-27 17:17:00,
2013-11-27 12:22:00,34.3,17.6,30.33,NW,309,19.6,19.6,50,0.00,BKN,OVC,0.00,WeatherDisplay:10.37,2013-11-27 17:22:00,
2013-11-27 12:27:00,34.0,17.3,30.33,NW,325,25.3,25.3,50,0.00,BKN,OVC,0.00,WeatherDisplay:10.37,2013-11-27 17:27:00,
2013-11-27 12:32:00,34.1,17.4,30.33,NNW,333,19.6,19.6,50,0.00,BKN,OVC,0.00,WeatherDisplay:10.37,2013-11-27 17:32:00,
2013-11-27 12:37:00,34.2,17.5,30.33,NW,321,20.7,20.7,50,0.00,BKN,OVC,0.00,WeatherDisplay:10.37,2013-11-27 17:37:00,
2013-11-27 12:42:00,34.1,17.4,30.33,NNW,334,24.2,24.2,50,0.00,BKN,OVC,0.00,WeatherDisplay:10.37,2013-11-27 17:42:00,
2013-11-27 12:47:00,34.0,17.3,30.33,NW,322,20.7,20.7,50,0.00,BKN,OVC,0.00,WeatherDisplay:10.37,2013-11-27 17:47:00,
2013-11-27 12:52:00,34.0,17.3,30.33,NNW,332,20.7,20.7,50,0.00,BKN,OVC,0.00,WeatherDisplay:10.37,2013-11-27 17:52:00,
2013-11-27 12:57:00,33.7,17.0,30.33,NNW,329,24.2,24.2,50,0.00,BKN,OVC,0.00,WeatherDisplay:10.37,2013-11-27 17:57:00,
2013-11-27 13:02:00,34.0,17.3,30.33,NW,308,32.2,32.2,50,0.00,BKN,OVC,0.00,WeatherDisplay:10.37,2013-11-27 18:02:00,
2013-11-27 13:07:00,34.0,17.3,30.33,NW,311,19.6,19.6,50,0.00,BKN,OVC,0.00,WeatherDisplay:10.37,2013-11-27 18:07:00,
2013-11-27 13:12:00,33.9,17.2,30.33,NW,324,19.6,19.6,50,0.00,BKN,OVC,0.00,WeatherDisplay:10.37,2013-11-27 18:12:00,
2013-11-27 13:17:00,34.1,17.4,30.33,NW,307,24.2,24.2,50,0.00,BKN,OVC,0.00,WeatherDisplay:10.37,2013-11-27 18:17:00,
2013-11-27 13:22:00,34.3,17.6,30.33,NNW,327,15.0,15.0,50,0.00,BKN,OVC,0.00,WeatherDisplay:10.37,2013-11-27 18:22:00,
2013-11-27 13:27:00,34.6,17.8,30.33,NNW,339,15.0,15.0,50,0.00,BKN,OVC,0.00,WeatherDisplay:10.37,2013-11-27 18:27:00,
2013-11-27 13:32:00,33.9,17.2,30.33,NNW,330,22.0,22.0,50,0.00,BKN,OVC,0.00,WeatherDisplay:10.37,2013-11-27 18:32:00,
2013-11-27 13:37:00,33.9,17.2,30.33,NW,321,33.4,33.4,50,0.00,BKN,OVC,0.00,WeatherDisplay:10.37,2013-11-27 18:37:00,
2013-11-27 13:42:00,33.5,16.8,30.33,NW,326,25.3,25.3,50,0.00,BKN,OVC,0.00,WeatherDisplay:10.37,2013-11-27 18:42:00,
2013-11-27 13:47:00,33.6,16.9,30.33,North,0,38.0,38.0,50,0.00,BKN,OVC,0.00,WeatherDisplay:10.37,2013-11-27 18:47:00,
2013-11-27 13:52:00,34.2,17.5,30.33,NNW,327,33.4,33.4,50,0.00,BKN,OVC,0.00,WeatherDisplay:10.37,2013-11-27 18:52:00,
2013-11-27 13:56:00,34.3,17.6,30.33,NW,326,26.5,26.5,50,0.00,BKN,OVC,0.00,WeatherDisplay:10.37,2013-11-27 18:56:00,
2013-11-27 14:01:00,34.3,17.6,30.33,NW,322,34.5,34.5,50,0.00,BKN,OVC,0.00,WeatherDisplay:10.37,2013-11-27 19:01:00,
2013-11-27 14:06:00,34.3,17.6,30.33,NW,326,31.1,31.1,50,0.00,BKN,OVC,0.00,WeatherDisplay:10.37,2013-11-27 19:06:00,
2013-11-27 14:11:00,33.5,16.8,30.33,NW,324,26.5,26.5,50,0.00,BKN,OVC,0.00,WeatherDisplay:10.37,2013-11-27 19:11:00,
2013-11-27 14:16:00,33.2,16.5,30.33,NNW,336,20.7,20.7,50,0.00,BKN,OVC,0.00,WeatherDisplay:10.37,2013-11-27 19:16:00,
2013-11-27 14:21:00,32.7,16.1,30.33,NW,318,23.0,23.0,50,0.00,BKN,OVC,0.00,WeatherDisplay:10.37,2013-11-27 19:21:00,
2013-11-27 14:26:00,32.2,15.6,30.33,NNW,329,26.5,26.5,50,0.00,BKN,OVC,0.00,WeatherDisplay:10.37,2013-11-27 19:26:00,
2013-11-27 14:31:00,33.0,16.4,30.33,NW,319,26.5,26.5,50,0.00,BKN,OVC,0.00,WeatherDisplay:10.37,2013-11-27 19:31:00,
2013-11-27 14:36:00,33.0,16.4,30.33,NNW,327,19.6,19.6,50,0.00,BKN,OVC,0.00,WeatherDisplay:10.37,2013-11-27 19:36:00,
2013-11-27 14:41:00,31.6,15.1,30.33,NNW,327,23.0,23.0,50,0.00,BKN,OVC,0.00,WeatherDisplay:10.37,2013-11-27 19:41:00,
2013-11-27 14:46:00,33.1,16.5,30.33,NNW,327,27.0,27.0,50,0.00,BKN,OVC,0.00,WeatherDisplay:10.37,2013-11-27 19:46:00,
2013-11-27 14:51:00,32.0,15.4,30.33,NNW,328,21.9,21.9,50,0.00,BKN,OVC,0.00,WeatherDisplay:10.37,2013-11-27 19:51:00,
2013-11-27 14:56:00,32.0,15.4,30.33,NNW,330,16.1,16.1,50,0.00,BKN,OVC,0.00,WeatherDisplay:10.37,2013-11-27 19:56:00,
2013-11-27 15:01:00,31.5,15.0,30.33,NNW,327,17.0,17.0,50,0.00,BKN,OVC,0.00,WeatherDisplay:10.37,2013-11-27 20:01:00,
2013-11-27 15:06:00,31.9,15.3,30.33,NW,317,26.5,26.5,50,0.00,BKN,OVC,0.00,WeatherDisplay:10.37,2013-11-27 20:06:00,
2013-11-27 15:11:00,32.5,15.9,30.33,NW,317,26.5,26.5,50,0.00,BKN,OVC,0.00,WeatherDisplay:10.37,2013-11-27 20:11:00,
2013-11-27 15:16:00,31.7,15.2,30.33,NW,320,33.4,33.4,50,0.00,BKN,OVC,0.00,WeatherDisplay:10.37,2013-11-27 20:16:00,
2013-11-27 15:21:00,31.8,15.3,30.33,NW,305,21.9,21.9,50,0.00,BKN,OVC,0.00,WeatherDisplay:10.37,2013-11-27 20:21:00,
2013-11-27 15:26:00,31.3,14.8,30.33,NNW,330,16.1,16.1,50,0.00,BKN,OVC,0.00,WeatherDisplay:10.37,2013-11-27 20:26:00,
2013-11-27 15:31:00,31.4,14.9,30.33,NW,322,19.6,19.6,50,0.00,BKN,OVC,0.00,WeatherDisplay:10.37,2013-11-27 20:31:00,
2013-11-27 15:36:00,31.6,15.1,30.33,NW,322,19.6,19.6,50,0.00,BKN,OVC,0.00,WeatherDisplay:10.37,2013-11-27 20:36:00,
2013-11-27 15:41:00,30.9,14.4,30.33,NW,307,25.3,25.3,50,0.00,BKN,OVC,0.00,WeatherDisplay:10.37,2013-11-27 20:41:00,
2013-11-27 15:46:00,31.7,15.2,30.33,NW,321,16.1,16.1,50,0.00,BKN,OVC,0.00,WeatherDisplay:10.37,2013-11-27 20:46:00,
2013-11-27 15:51:00,31.6,15.1,30.33,NW,306,24.2,24.2,50,0.00,BKN,OVC,0.00,WeatherDisplay:10.37,2013-11-27 20:51:00,
2013-11-27 15:56:00,31.7,15.2,30.33,NNW,340,19.6,19.6,50,0.00,BKN,OVC,0.00,WeatherDisplay:10.37,2013-11-27 20:56:00,
2013-11-27 16:01:00,31.6,15.1,30.33,NW,317,19.6,19.6,50,0.00,BKN,OVC,0.00,WeatherDisplay:10.37,2013-11-27 21:01:00,
2013-11-27 16:06:00,31.5,15.0,30.33,NW,312,26.5,26.5,50,0.00,BKN,OVC,0.00,WeatherDisplay:10.37,2013-11-27 21:06:00,
2013-11-27 16:11:00,31.1,14.6,30.33,WNW,291,19.6,19.6,50,0.00,BKN,OVC,0.00,WeatherDisplay:10.37,2013-11-27 21:11:00,
2013-11-27 16:16:00,30.8,14.3,30.33,WNW,303,20.7,20.7,50,0.00,BKN,OVC,0.00,WeatherDisplay:10.37,2013-11-27 21:16:00,
2013-11-27 16:21:00,31.1,14.6,30.33,WNW,284,20.7,20.7,50,0.00,BKN,OVC,0.00,WeatherDisplay:10.37,2013-11-27 21:21:00,
2013-11-27 16:26:00,30.2,13.8,30.33,NW,323,12.0,12.0,50,0.00,BKN,OVC,0.00,WeatherDisplay:10.37,2013-11-27 21:26:00,
2013-11-27 16:31:00,29.8,13.4,30.33,NW,316,21.9,21.9,50,0.00,BKN,OVC,0.00,WeatherDisplay:10.37,2013-11-27 21:31:00,
2013-11-27 16:36:00,30.3,13.9,30.33,NW,310,18.4,18.4,50,0.00,BKN,OVC,0.00,WeatherDisplay:10.37,2013-11-27 21:36:00,
2013-11-27 16:41:00,30.6,14.1,30.33,NW,311,19.6,19.6,50,0.00,BKN,OVC,0.00,WeatherDisplay:10.37,2013-11-27 21:41:00,
2013-11-27 16:46:00,29.7,13.3,30.33,NW,313,26.5,26.5,50,0.00,BKN,OVC,0.00,WeatherDisplay:10.37,2013-11-27 21:46:00,
2013-11-27 16:51:00,29.5,13.1,30.33,WNW,299,24.2,24.2,50,0.00,BKN,OVC,0.00,WeatherDisplay:10.37,2013-11-27 21:51:00,
2013-11-27 16:56:00,29.6,13.2,30.33,NW,308,27.6,27.6,50,0.00,BKN,OVC,0.00,WeatherDisplay:10.37,2013-11-27 21:56:00,
2013-11-27 17:01:00,29.3,12.9,30.33,NW,324,26.5,26.5,50,0.00,BKN,OVC,0.00,WeatherDisplay:10.37,2013-11-27 22:01:00,
2013-11-27 17:06:00,29.3,12.9,30.33,NW,315,18.4,18.4,50,0.00,BKN,OVC,0.00,WeatherDisplay:10.37,2013-11-27 22:06:00,
2013-11-27 17:11:00,28.9,12.6,30.33,NW,306,23.0,23.0,50,0.00,BKN,OVC,0.00,WeatherDisplay:10.37,2013-11-27 22:11:00,
2013-11-27 17:16:00,29.0,12.7,30.33,NW,308,25.0,25.0,50,0.00,BKN,OVC,0.00,WeatherDisplay:10.37,2013-11-27 22:16:00,
2013-11-27 17:21:00,28.7,12.4,30.33,WNW,295,24.2,24.2,50,0.00,BKN,OVC,0.00,WeatherDisplay:10.37,2013-11-27 22:21:00,
2013-11-27 17:26:00,28.9,12.6,30.33,NNW,332,23.0,23.0,50,0.00,BKN,OVC,0.00,WeatherDisplay:10.37,2013-11-27 22:26:00,
2013-11-27 17:31:00,28.2,11.9,30.33,NNW,328,21.9,21.9,50,0.00,BKN,OVC,0.00,WeatherDisplay:10.37,2013-11-27 22:31:00,
2013-11-27 17:36:00,27.8,11.5,30.33,NW,319,24.2,24.2,50,0.00,BKN,OVC,0.00,WeatherDisplay:10.37,2013-11-27 22:36:00,
2013-11-27 17:41:00,27.2,11.0,30.33,NNW,341,17.3,17.3,50,0.00,BKN,OVC,0.00,WeatherDisplay:10.37,2013-11-27 22:41:00,
2013-11-27 17:46:00,27.0,10.8,30.33,NNW,328,23.0,23.0,50,0.00,BKN,OVC,0.00,WeatherDisplay:10.37,2013-11-27 22:46:00,
2013-11-27 17:51:00,27.0,10.8,30.33,NW,318,24.0,24.0,50,0.00,BKN,OVC,0.00,WeatherDisplay:10.37,2013-11-27 22:51:00,
2013-11-27 17:56:00,26.1,10.0,30.33,NW,321,20.0,20.0,50,0.00,BKN,OVC,0.00,WeatherDisplay:10.37,2013-11-27 22:56:00,
2013-11-27 18:01:00,26.6,10.4,30.33,NNW,330,27.6,27.6,50,0.00,BKN,OVC,0.00,WeatherDisplay:10.37,2013-11-27 23:01:00,
2013-11-27 18:06:00,27.2,11.0,30.33,NW,322,25.0,25.0,50,0.00,BKN,OVC,0.00,WeatherDisplay:10.37,2013-11-27 23:06:00,
2013-11-27 18:11:00,26.5,10.3,30.33,NNW,338,19.6,19.6,50,0.00,BKN,OVC,0.00,WeatherDisplay:10.37,2013-11-27 23:11:00,
2013-11-27 18:16:00,26.1,10.0,30.33,NW,320,18.4,18.4,50,0.00,BKN,OVC,0.00,WeatherDisplay:10.37,2013-11-27 23:16:00,
2013-11-27 18:21:00,26.8,10.6,30.33,NW,321,17.3,17.3,50,0.00,BKN,OVC,0.00,WeatherDisplay:10.37,2013-11-27 23:21:00,
2013-11-27 18:26:00,24.9,8.9,30.33,NNW,338,15.0,15.0,50,0.00,BKN,OVC,0.00,WeatherDisplay:10.37,2013-11-27 23:26:00,
2013-11-27 18:31:00,26.4,10.3,30.33,NNW,327,26.5,26.5,50,0.00,BKN,OVC,0.00,WeatherDisplay:10.37,2013-11-27 23:31:00,
2013-11-27 18:36:00,25.2,9.1,30.33,NW,326,20.7,20.7,50,0.00,BKN,OVC,0.00,WeatherDisplay:10.37,2013-11-27 23:36:00,
2013-11-27 18:41:00,25.6,9.5,30.33,NNW,329,28.8,28.8,50,0.00,BKN,OVC,0.00,WeatherDisplay:10.37,2013-11-27 23:41:00,
2013-11-27 18:46:00,25.9,9.8,30.33,NW,316,18.4,18.4,50,0.00,BKN,OVC,0.00,WeatherDisplay:10.37,2013-11-27 23:46:00,
2013-11-27 18:51:00,25.5,9.4,30.33,NW,324,26.5,26.5,50,0.00,BKN,OVC,0.00,WeatherDisplay:10.37,2013-11-27 23:51:00,
2013-11-27 18:56:00,24.5,8.5,30.33,North,350,20.7,20.7,50,0.00,BKN,OVC,0.00,WeatherDisplay:10.37,2013-11-27 23:56:00,
2013-11-27 19:01:00,24.9,8.9,30.33,North,359,21.9,21.9,50,0.00,BKN,OVC,0.00,WeatherDisplay:10.37,2013-11-28 00:01:00,
2013-11-27 19:06:00,25.3,9.2,30.33,NW,318,19.6,19.6,50,0.00,BKN,OVC,0.00,WeatherDisplay:10.37,2013-11-28 00:06:00,
2013-11-27 19:11:00,24.2,8.2,30.33,NNW,329,10.4,10.4,50,0.00,BKN,OVC,0.00,WeatherDisplay:10.37,2013-11-28 00:11:00,
2013-11-27 19:16:00,25.6,9.5,30.33,NW,319,21.9,21.9,50,0.00,BKN,OVC,0.00,WeatherDisplay:10.37,2013-11-28 00:16:00,
2013-11-27 19:21:00,24.9,8.9,30.33,North,358,21.9,21.9,50,0.00,BKN,OVC,0.00,WeatherDisplay:10.37,2013-11-28 00:21:00,
2013-11-27 19:26:00,25.0,9.0,30.33,WNW,296,15.0,15.0,50,0.00,BKN,OVC,0.00,WeatherDisplay:10.37,2013-11-28 00:26:00,
2013-11-27 19:31:00,24.8,8.8,30.33,NW,316,17.3,17.3,50,0.00,BKN,OVC,0.00,WeatherDisplay:10.37,2013-11-28 00:31:00,
2013-11-27 19:36:00,24.9,8.9,30.33,NW,326,27.6,27.6,50,0.00,BKN,OVC,0.00,WeatherDisplay:10.37,2013-11-28 00:36:00,
2013-11-27 19:41:00,25.1,9.0,30.33,NW,319,19.6,19.6,50,0.00,BKN,OVC,0.00,WeatherDisplay:10.37,2013-11-28 00:41:00,
2013-11-27 19:46:00,25.1,9.0,30.33,NNW,329,18.4,18.4,50,0.00,BKN,OVC,0.00,WeatherDisplay:10.37,2013-11-28 00:46:00,
2013-11-27 19:51:00,25.0,9.0,30.33,NW,307,24.2,24.2,50,0.00,BKN,OVC,0.00,WeatherDisplay:10.37,2013-11-28 00:51:00,
2013-11-27 19:56:00,24.5,8.5,30.33,NNW,329,19.6,19.6,50,0.00,BKN,OVC,0.00,WeatherDisplay:10.37,2013-11-28 00:56:00,
2013-11-27 20:01:00,23.9,7.9,30.33,NW,324,27.6,27.6,50,0.00,BKN,OVC,0.00,WeatherDisplay:10.37,2013-11-28 01:01:00,
2013-11-27 20:06:00,24.4,8.4,30.33,NW,323,21.9,21.9,50,0.00,BKN,OVC,0.00,WeatherDisplay:10.37,2013-11-28 01:06:00,
2013-11-27 20:11:00,24.2,8.2,30.33,NNW,342,25.3,25.3,50,0.00,BKN,OVC,0.00,WeatherDisplay:10.37,2013-11-28 01:11:00,
2013-11-27 20:16:00,23.7,7.7,30.33,NW,315,17.3,17.3,50,0.00,BKN,OVC,0.00,WeatherDisplay:10.37,2013-11-28 01:16:00,
2013-11-27 20:21:00,23.9,7.9,30.33,NNW,327,21.9,21.9,50,0.00,BKN,OVC,0.00,WeatherDisplay:10.37,2013-11-28 01:21:00,
2013-11-27 20:26:00,23.9,7.9,30.33,NNW,332,19.6,19.6,50,0.00,BKN,OVC,0.00,WeatherDisplay:10.37,2013-11-28 01:26:00,
2013-11-27 20:31:00,23.4,7.5,30.33,NW,321,19.6,19.6,50,0.00,BKN,OVC,0.00,WeatherDisplay:10.37,2013-11-28 01:31:00,
2013-11-27 20:36:00,23.2,7.3,30.33,NW,319,13.0,13.0,50,0.00,BKN,OVC,0.00,WeatherDisplay:10.37,2013-11-28 01:36:00,
2013-11-27 20:41:00,23.9,7.9,30.33,NNW,342,19.6,19.6,50,0.00,BKN,OVC,0.00,WeatherDisplay:10.37,2013-11-28 01:41:00,
2013-11-27 20:46:00,23.1,7.2,30.33,NW,323,24.2,24.2,50,0.00,BKN,OVC,0.00,WeatherDisplay:10.37,2013-11-28 01:46:00,
2013-11-27 20:51:00,23.4,7.5,30.33,NW,316,19.6,19.6,50,0.00,BKN,OVC,0.00,WeatherDisplay:10.37,2013-11-28 01:51:00,
2013-11-27 20:56:00,23.4,7.5,30.33,NNW,327,23.0,23.0,50,0.00,BKN,OVC,0.00,WeatherDisplay:10.37,2013-11-28 01:56:00,
2013-11-27 21:01:00,23.2,7.3,30.33,NNW,335,15.0,15.0,50,0.00,BKN,OVC,0.00,WeatherDisplay:10.37,2013-11-28 02:01:00,
2013-11-27 21:06:00,23.0,7.1,30.33,NW,309,21.9,21.9,50,0.00,BKN,OVC,0.00,WeatherDisplay:10.37,2013-11-28 02:06:00,
2013-11-27 21:11:00,23.0,7.1,30.33,NW,320,20.7,20.7,50,0.00,BKN,OVC,0.00,WeatherDisplay:10.37,2013-11-28 02:11:00,
2013-11-27 21:16:00,22.9,7.0,30.33,NW,315,26.5,26.5,50,0.00,BKN,OVC,0.00,WeatherDisplay:10.37,2013-11-28 02:16:00,
2013-11-27 21:21:00,22.7,6.8,30.33,NW,319,23.0,23.0,50,0.00,BKN,OVC,0.00,WeatherDisplay:10.37,2013-11-28 02:21:00,
2013-11-27 21:26:00,22.9,7.0,30.33,NNW,336,20.7,20.7,50,0.00,BKN,OVC,0.00,WeatherDisplay:10.37,2013-11-28 02:26:00,
2013-11-27 21:31:00,23.1,7.2,30.33,NNW,327,16.1,16.1,50,0.00,BKN,OVC,0.00,WeatherDisplay:10.37,2013-11-28 02:31:00,
2013-11-27 21:36:00,23.0,7.1,30.33,NNW,344,18.4,18.4,50,0.00,BKN,OVC,0.00,WeatherDisplay:10.37,2013-11-28 02:36:00,
2013-11-27 21:41:00,22.9,7.0,30.33,NW,317,18.4,18.4,50,0.00,BKN,OVC,0.00,WeatherDisplay:10.37,2013-11-28 02:41:00,
2013-11-27 21:46:00,22.7,6.8,30.33,NW,316,24.2,24.2,50,0.00,BKN,OVC,0.00,WeatherDisplay:10.37,2013-11-28 02:46:00,
2013-11-27 21:51:00,22.5,6.6,30.33,NW,326,17.3,17.3,50,0.00,BKN,OVC,0.00,WeatherDisplay:10.37,2013-11-28 02:51:00,
2013-11-27 21:56:00,22.5,6.6,30.33,NNW,327,24.2,24.2,50,0.00,BKN,OVC,0.00,WeatherDisplay:10.37,2013-11-28 02:56:00,
2013-11-27 22:01:00,22.5,6.6,30.33,NW,310,18.4,18.4,50,0.00,BKN,OVC,0.00,WeatherDisplay:10.37,2013-11-28 03:01:00,
2013-11-27 22:06:00,22.2,6.4,30.33,NNW,335,24.2,24.2,50,0.00,BKN,OVC,0.00,WeatherDisplay:10.37,2013-11-28 03:06:00,
2013-11-27 22:11:00,22.1,6.3,30.33,NW,317,18.4,18.4,50,0.00,BKN,OVC,0.00,WeatherDisplay:10.37,2013-11-28 03:11:00,
2013-11-27 22:16:00,22.5,6.6,30.33,NW,319,19.6,19.6,50,0.00,BKN,OVC,0.00,WeatherDisplay:10.37,2013-11-28 03:16:00,
2013-11-27 22:21:00,22.6,6.7,30.33,NW,326,24.2,24.2,50,0.00,BKN,OVC,0.00,WeatherDisplay:10.37,2013-11-28 03:21:00,
2013-11-27 22:26:00,22.0,6.2,30.33,NNW,333,20.7,20.7,50,0.00,BKN,OVC,0.00,WeatherDisplay:10.37,2013-11-28 03:26:00,
2013-11-27 22:31:00,21.6,5.8,30.33,NW,319,17.3,17.3,50,0.00,BKN,OVC,0.00,WeatherDisplay:10.37,2013-11-28 03:31:00,
2013-11-27 22:36:00,21.5,5.7,30.33,NW,321,18.4,18.4,50,0.00,BKN,OVC,0.00,WeatherDisplay:10.37,2013-11-28 03:36:00,
2013-11-27 22:41:00,21.9,6.1,30.33,NNW,334,19.6,19.6,50,0.00,BKN,OVC,0.00,WeatherDisplay:10.37,2013-11-28 03:41:00,
2013-11-27 22:46:00,22.2,6.4,30.33,NW,322,27.6,27.6,50,0.00,BKN,OVC,0.00,WeatherDisplay:10.37,2013-11-28 03:46:00,
2013-11-27 22:51:00,22.0,6.2,30.33,NNW,332,26.5,26.5,50,0.00,BKN,OVC,0.00,WeatherDisplay:10.37,2013-11-28 03:51:00,
2013-11-27 22:56:00,21.9,6.1,30.33,NNW,332,26.5,26.5,50,0.00,BKN,OVC,0.00,WeatherDisplay:10.37,2013-11-28 03:56:00,
2013-11-27 23:01:00,22.1,6.3,30.33,NW,320,27.6,27.6,50,0.00,BKN,OVC,0.00,WeatherDisplay:10.37,2013-11-28 04:01:00,
2013-11-27 23:06:00,21.9,6.1,30.33,NNW,329,21.9,21.9,50,0.00,BKN,OVC,0.00,WeatherDisplay:10.37,2013-11-28 04:06:00,
2013-11-27 23:11:00,21.4,5.6,30.33,NNW,330,24.2,24.2,50,0.00,BKN,OVC,0.00,WeatherDisplay:10.37,2013-11-28 04:11:00,
2013-11-27 23:16:00,21.5,5.7,30.33,NW,323,15.0,15.0,50,0.00,BKN,OVC,0.00,WeatherDisplay:10.37,2013-11-28 04:16:00,
2013-11-27 23:21:00,21.3,5.5,30.33,NW,322,20.7,20.7,50,0.00,BKN,OVC,0.00,WeatherDisplay:10.37,2013-11-28 04:21:00,
2013-11-27 23:26:00,21.8,6.0,30.33,NNW,341,20.7,20.7,50,0.00,BKN,OVC,0.00,WeatherDisplay:10.37,2013-11-28 04:26:00,
2013-11-27 23:31:00,21.3,5.5,30.33,NNW,328,19.6,19.6,50,0.00,BKN,OVC,0.00,WeatherDisplay:10.37,2013-11-28 04:31:00,
2013-11-27 23:36:00,21.6,5.8,30.33,NNW,348,25.3,25.3,50,0.00,BKN,OVC,0.00,WeatherDisplay:10.37,2013-11-28 04:36:00,
2013-11-27 23:41:00,21.2,5.4,30.33,NNW,327,17.3,17.3,50,0.00,BKN,OVC,0.00,WeatherDisplay:10.37,2013-11-28 04:41:00,
2013-11-27 23:46:00,21.4,5.6,30.33,NNW,329,15.0,15.0,50,0.00,BKN,OVC,0.00,WeatherDisplay:10.37,2013-11-28 04:46:00,
2013-11-27 23:51:00,21.3,5.5,30.33,NW,323,19.6,19.6,50,0.00,BKN,OVC,0.00,WeatherDisplay:10.37,2013-11-28 04:51:00,
2013-11-27 23:56:00,21.2,5.4,30.33,NW,309,19.6,19.6,50,0.00,BKN,OVC,0.00,WeatherDisplay:10.37,2013-11-28 04:56:00,